Date,TemperatureHighF,TemperatureAvgF,TemperatureLowF,DewpointHighF,DewpointAvgF,DewpointLowF,HumidityHigh,HumidityAvg,HumidityLow,PressureMaxIn,PressureMinIn,WindSpeedMaxMPH,WindSpeedAvgMPH,GustSpeedMaxMPH,PrecipitationSumIn
2013-3-1,39,37,33,37,32,29,96,85,74,0.00,40.00,7,5,15,0.04
2013-3-2,44,37,33,33,31,29,97,80,59,0.00,40.00,6,3,10,0.11
2013-3-3,41,37,34,34,32,30,95,84,69,0.00,40.00,6,3,12,0.01
2013-3-4,41,36,33,32,28,23,96,74,49,0.00,40.00,7,5,14,0.03
2013-3-5,42,38,32,38,32,25,92,82,75,0.00,40.00,8,6,21,0.05
2013-3-6,40,38,37,36,34,31,92,83,74,0.00,40.00,16,11,32,0.05
2013-3-7,37,36,35,35,34,33,94,92,85,0.00,40.00,17,15,34,0.99
2013-3-8,41,36,34,34,33,29,96,90,63,0.00,40.00,16,14,33,1.37
2013-3-9,40,37,36,31,30,29,81,77,67,0.00,40.00,13,10,25,0.04
2013-3-10,41,38,35,31,30,29,85,75,66,0.00,40.00,7,4,17,0.00
2013-3-11,48,40,35,40,35,31,89,81,67,0.00,40.00,7,5,15,0.00
2013-3-12,56,50,43,52,47,40,97,88,75,0.00,40.00,10,7,23,0.24
2013-3-13,53,47,38,52,38,26,98,75,46,0.00,40.00,9,4,20,0.98
2013-3-14,42,35,26,28,20,11,74,55,36,0.00,40.00,8,4,17,0.03
2013-3-15,40,30,22,26,12,6,68,48,29,0.00,40.00,11,7,23,0.00
2013-3-16,40,34,30,26,17,10,68,50,37,0.00,40.00,9,5,23,0.00
2013-3-17,40,33,28,22,15,6,77,50,31,0.00,40.00,8,4,19,0.00
2013-3-18,35,30,25,21,12,5,73,48,39,0.00,40.00,7,4,15,0.00
2013-3-19,42,36,29,41,35,21,99,97,73,0.00,40.00,13,9,30,0.79
2013-3-20,42,34,28,34,22,19,99,64,40,0.00,40.00,11,6,23,0.01
2013-3-21,41,35,31,31,27,23,95,73,50,0.00,40.00,8,5,17,0.00
2013-3-22,45,35,29,33,11,-100,97,62,48,0.00,40.00,6,4,14,0.56
2013-3-23,45,37,30,25,22,20,69,55,40,0.00,40.00,7,6,18,0.18
2013-3-24,45,38,31,27,24,21,82,59,44,0.00,40.00,7,4,14,0.00
2013-3-25,45,38,31,34,30,26,93,73,50,0.00,40.00,11,7,22,0.00
2013-3-26,49,40,34,32,26,20,89,61,34,0.00,40.00,10,7,23,0.01
2013-3-27,55,42,33,31,27,23,85,58,29,0.00,40.00,5,4,12,0.01
2013-3-28,47,43,39,34,31,28,74,62,53,0.00,40.00,8,4,15,0.07
2013-3-29,56,45,36,38,34,32,90,66,43,0.00,40.00,6,3,11,0.00
2013-3-30,56,45,38,35,32,27,84,61,37,0.00,40.00,6,3,11,0.00
2013-3-31,58,46,35,38,31,-100,96,63,26,0.00,40.00,8,4,15,0.01